sensor_id;sensor_type;location;lat;lon;timestamp;pressure;altitude;pressure_sealevel;temperature;humidity
30708;BME280;17458;48.958;8.284;2023-01-28T00:00:55;101089.75;;;5.81;58.27
30708;BME280;17458;48.958;8.284;2023-01-28T00:03:39;101101.56;;;5.64;58.26
30708;BME280;17458;48.958;8.284;2023-01-28T00:06:24;101095.63;;;5.66;58.33
30708;BME280;17458;48.958;8.284;2023-01-28T00:09:08;101092.91;;;5.55;58.31
30708;BME280;17458;48.958;8.284;2023-01-28T00:11:52;101101.56;;;5.96;57.83
30708;BME280;17458;48.958;8.284;2023-01-28T00:14:36;101098.41;;;5.90;57.39
30708;BME280;17458;48.958;8.284;2023-01-28T00:17:20;101092.25;;;5.89;57.25
30708;BME280;17458;48.958;8.284;2023-01-28T00:20:05;101098.09;;;5.75;57.67
30708;BME280;17458;48.958;8.284;2023-01-28T00:22:49;101095.41;;;5.85;58.06
30708;BME280;17458;48.958;8.284;2023-01-28T00:25:33;101094.94;;;5.69;57.88
30708;BME280;17458;48.958;8.284;2023-01-28T00:28:16;101089.75;;;5.81;57.70
30708;BME280;17458;48.958;8.284;2023-01-28T00:31:08;101086.25;;;5.70;57.42
30708;BME280;17458;48.958;8.284;2023-01-28T00:33:54;101089.28;;;5.96;57.12
30708;BME280;17458;48.958;8.284;2023-01-28T00:36:38;101089.97;;;5.94;57.33
30708;BME280;17458;48.958;8.284;2023-01-28T00:39:24;101099.03;;;5.65;58.34
30708;BME280;17458;48.958;8.284;2023-01-28T00:42:08;101099.06;;;5.87;57.94
30708;BME280;17458;48.958;8.284;2023-01-28T00:44:52;101106.47;;;5.59;58.40
30708;BME280;17458;48.958;8.284;2023-01-28T00:47:36;101099.22;;;5.89;58.16
30708;BME280;17458;48.958;8.284;2023-01-28T00:50:20;101093.75;;;5.44;58.73
30708;BME280;17458;48.958;8.284;2023-01-28T00:53:04;101098.03;;;5.85;58.25
30708;BME280;17458;48.958;8.284;2023-01-28T00:55:49;101103.19;;;6.05;57.31
30708;BME280;17458;48.958;8.284;2023-01-28T00:58:33;101108.72;;;6.09;57.25
30708;BME280;17458;48.958;8.284;2023-01-28T01:01:23;101097.72;;;5.70;58.32
30708;BME280;17458;48.958;8.284;2023-01-28T01:04:07;101097.38;;;5.88;57.59
30708;BME280;17458;48.958;8.284;2023-01-28T01:06:52;101097.75;;;5.92;57.77
30708;BME280;17458;48.958;8.284;2023-01-28T01:09:36;101104.34;;;5.87;57.66
30708;BME280;17458;48.958;8.284;2023-01-28T01:12:20;101103.59;;;5.88;58.08
30708;BME280;17458;48.958;8.284;2023-01-28T01:15:06;101094.47;;;6.07;57.73
30708;BME280;17458;48.958;8.284;2023-01-28T01:17:53;101099.22;;;5.79;57.99
30708;BME280;17458;48.958;8.284;2023-01-28T01:20:37;101108.56;;;5.85;58.37
30708;BME280;17458;48.958;8.284;2023-01-28T01:23:30;101101.34;;;5.61;58.72
30708;BME280;17458;48.958;8.284;2023-01-28T01:26:14;101107.53;;;5.83;57.88
30708;BME280;17458;48.958;8.284;2023-01-28T01:28:59;101102.00;;;5.80;58.46
30708;BME280;17458;48.958;8.284;2023-01-28T01:31:42;101106.59;;;5.83;58.47
30708;BME280;17458;48.958;8.284;2023-01-28T01:34:27;101110.44;;;5.76;58.19
30708;BME280;17458;48.958;8.284;2023-01-28T01:37:11;101107.41;;;5.82;58.87
30708;BME280;17458;48.958;8.284;2023-01-28T01:39:55;101094.03;;;5.68;58.75
30708;BME280;17458;48.958;8.284;2023-01-28T01:42:40;101113.78;;;5.42;59.55
30708;BME280;17458;48.958;8.284;2023-01-28T01:45:25;101113.91;;;5.75;59.38
30708;BME280;17458;48.958;8.284;2023-01-28T01:48:18;101107.91;;;5.88;58.55
30708;BME280;17458;48.958;8.284;2023-01-28T01:51:06;101104.75;;;5.82;58.59
30708;BME280;17458;48.958;8.284;2023-01-28T01:53:53;101100.59;;;5.74;59.54
30708;BME280;17458;48.958;8.284;2023-01-28T01:56:42;101106.78;;;5.74;59.26
30708;BME280;17458;48.958;8.284;2023-01-28T01:59:31;101109.44;;;5.74;59.14
30708;BME280;17458;48.958;8.284;2023-01-28T02:02:16;101100.94;;;5.78;59.10
30708;BME280;17458;48.958;8.284;2023-01-28T02:05:01;101104.09;;;5.84;59.07
30708;BME280;17458;48.958;8.284;2023-01-28T02:07:47;101100.25;;;5.91;58.67
30708;BME280;17458;48.958;8.284;2023-01-28T02:10:34;101099.22;;;5.57;59.85
30708;BME280;17458;48.958;8.284;2023-01-28T02:13:21;101098.91;;;5.96;58.94
30708;BME280;17458;48.958;8.284;2023-01-28T02:16:08;101087.44;;;5.42;59.88
30708;BME280;17458;48.958;8.284;2023-01-28T02:18:55;101093.25;;;5.69;59.95
30708;BME280;17458;48.958;8.284;2023-01-28T02:21:59;101099.72;;;5.95;59.29
30708;BME280;17458;48.958;8.284;2023-01-28T02:31:13;101093.97;;;5.89;59.55
30708;BME280;17458;48.958;8.284;2023-01-28T02:34:04;101100.22;;;6.01;59.16
30708;BME280;17458;48.958;8.284;2023-01-28T02:37:00;101099.59;;;5.93;59.03
30708;BME280;17458;48.958;8.284;2023-01-28T02:39:50;101102.25;;;5.83;59.86
30708;BME280;17458;48.958;8.284;2023-01-28T02:42:37;101096.25;;;6.18;59.55
30708;BME280;17458;48.958;8.284;2023-01-28T02:45:30;101103.66;;;6.33;59.13
30708;BME280;17458;48.958;8.284;2023-01-28T02:48:33;101106.44;;;6.13;59.36
30708;BME280;17458;48.958;8.284;2023-01-28T02:54:32;101116.16;;;5.70;60.92
30708;BME280;17458;48.958;8.284;2023-01-28T03:03:28;101117.66;;;6.11;59.84
30708;BME280;17458;48.958;8.284;2023-01-28T03:06:21;101116.38;;;6.05;61.07
30708;BME280;17458;48.958;8.284;2023-01-28T03:09:09;101116.34;;;5.84;61.00
30708;BME280;17458;48.958;8.284;2023-01-28T03:12:10;101111.03;;;5.72;61.76
30708;BME280;17458;48.958;8.284;2023-01-28T03:15:15;101117.25;;;5.30;63.05
30708;BME280;17458;48.958;8.284;2023-01-28T03:18:34;101113.81;;;5.31;63.21
30708;BME280;17458;48.958;8.284;2023-01-28T03:21:41;101113.84;;;5.21;63.62
30708;BME280;17458;48.958;8.284;2023-01-28T03:24:51;101110.28;;;5.31;63.41
30708;BME280;17458;48.958;8.284;2023-01-28T03:28:03;101111.28;;;5.43;64.11
30708;BME280;17458;48.958;8.284;2023-01-28T03:31:12;101112.59;;;5.70;63.22
30708;BME280;17458;48.958;8.284;2023-01-28T03:34:19;101114.16;;;5.46;63.94
30708;BME280;17458;48.958;8.284;2023-01-28T03:37:23;101112.81;;;5.51;63.95
30708;BME280;17458;48.958;8.284;2023-01-28T03:40:20;101107.34;;;5.70;63.57
30708;BME280;17458;48.958;8.284;2023-01-28T03:43:04;101118.88;;;6.04;62.63
30708;BME280;17458;48.958;8.284;2023-01-28T03:45:50;101122.16;;;5.80;63.46
30708;BME280;17458;48.958;8.284;2023-01-28T03:48:35;101127.00;;;5.95;63.40
30708;BME280;17458;48.958;8.284;2023-01-28T03:51:22;101118.84;;;5.82;63.96
30708;BME280;17458;48.958;8.284;2023-01-28T03:54:06;101122.09;;;5.68;64.33
30708;BME280;17458;48.958;8.284;2023-01-28T03:56:51;101124.19;;;5.40;65.41
30708;BME280;17458;48.958;8.284;2023-01-28T03:59:35;101129.03;;;5.78;64.90
30708;BME280;17458;48.958;8.284;2023-01-28T04:02:21;101135.91;;;5.33;66.50
30708;BME280;17458;48.958;8.284;2023-01-28T04:05:08;101132.81;;;5.59;66.23
30708;BME280;17458;48.958;8.284;2023-01-28T04:07:59;101136.63;;;5.95;64.71
30708;BME280;17458;48.958;8.284;2023-01-28T04:11:02;101134.53;;;5.59;66.09
30708;BME280;17458;48.958;8.284;2023-01-28T04:13:59;101129.22;;;5.69;65.58
30708;BME280;17458;48.958;8.284;2023-01-28T04:16:50;101131.78;;;5.89;65.10
30708;BME280;17458;48.958;8.284;2023-01-28T04:19:35;101135.34;;;6.12;65.03
30708;BME280;17458;48.958;8.284;2023-01-28T04:22:21;101141.59;;;6.02;64.89
30708;BME280;17458;48.958;8.284;2023-01-28T04:25:05;101145.75;;;5.88;65.13
30708;BME280;17458;48.958;8.284;2023-01-28T04:27:50;101155.97;;;5.63;65.99
30708;BME280;17458;48.958;8.284;2023-01-28T04:30:39;101148.81;;;6.04;65.63
30708;BME280;17458;48.958;8.284;2023-01-28T04:33:43;101147.28;;;5.96;65.95
30708;BME280;17458;48.958;8.284;2023-01-28T04:36:36;101151.09;;;5.68;66.72
30708;BME280;17458;48.958;8.284;2023-01-28T04:39:38;101146.94;;;5.50;67.94
30708;BME280;17458;48.958;8.284;2023-01-28T04:42:53;101149.22;;;5.45;68.88
30708;BME280;17458;48.958;8.284;2023-01-28T04:45:47;101147.59;;;5.79;67.48
30708;BME280;17458;48.958;8.284;2023-01-28T04:48:54;101149.41;;;5.58;67.54
30708;BME280;17458;48.958;8.284;2023-01-28T04:51:50;101148.50;;;5.48;68.17
30708;BME280;17458;48.958;8.284;2023-01-28T04:54:54;101143.72;;;5.64;67.68
30708;BME280;17458;48.958;8.284;2023-01-28T04:57:39;101151.94;;;5.57;68.21
30708;BME280;17458;48.958;8.284;2023-01-28T05:00:25;101148.25;;;6.09;66.66
30708;BME280;17458;48.958;8.284;2023-01-28T05:03:11;101156.53;;;5.59;68.19
30708;BME280;17458;48.958;8.284;2023-01-28T05:05:55;101152.00;;;5.68;67.90
30708;BME280;17458;48.958;8.284;2023-01-28T05:08:55;101166.78;;;5.98;67.92
30708;BME280;17458;48.958;8.284;2023-01-28T05:11:39;101159.81;;;5.15;69.75
30708;BME280;17458;48.958;8.284;2023-01-28T05:14:24;101165.59;;;5.63;69.06
30708;BME280;17458;48.958;8.284;2023-01-28T05:17:29;101167.53;;;5.33;69.83
30708;BME280;17458;48.958;8.284;2023-01-28T05:20:13;101168.44;;;5.34;70.90
30708;BME280;17458;48.958;8.284;2023-01-28T05:22:57;101169.00;;;5.20;70.72
30708;BME280;17458;48.958;8.284;2023-01-28T05:25:49;101171.59;;;5.40;70.48
30708;BME280;17458;48.958;8.284;2023-01-28T05:28:35;101167.81;;;5.26;70.40
30708;BME280;17458;48.958;8.284;2023-01-28T05:31:19;101174.25;;;5.40;70.69
30708;BME280;17458;48.958;8.284;2023-01-28T05:34:03;101177.41;;;5.36;70.59
30708;BME280;17458;48.958;8.284;2023-01-28T05:36:46;101175.50;;;5.55;70.38
30708;BME280;17458;48.958;8.284;2023-01-28T05:39:57;101178.53;;;5.60;70.47
30708;BME280;17458;48.958;8.284;2023-01-28T05:42:41;101180.03;;;5.46;69.87
30708;BME280;17458;48.958;8.284;2023-01-28T05:45:46;101174.81;;;5.26;71.53
30708;BME280;17458;48.958;8.284;2023-01-28T05:48:53;101188.84;;;5.47;70.81
30708;BME280;17458;48.958;8.284;2023-01-28T05:51:56;101191.00;;;5.10;71.63
30708;BME280;17458;48.958;8.284;2023-01-28T05:54:41;101191.00;;;5.10;72.10
30708;BME280;17458;48.958;8.284;2023-01-28T05:57:26;101196.75;;;5.37;71.11
30708;BME280;17458;48.958;8.284;2023-01-28T06:00:10;101205.09;;;5.31;70.99
30708;BME280;17458;48.958;8.284;2023-01-28T06:03:02;101207.94;;;5.44;71.04
30708;BME280;17458;48.958;8.284;2023-01-28T06:05:47;101200.94;;;5.55;70.66
30708;BME280;17458;48.958;8.284;2023-01-28T06:08:31;101204.88;;;5.50;70.21
30708;BME280;17458;48.958;8.284;2023-01-28T06:11:16;101216.00;;;5.46;69.89
30708;BME280;17458;48.958;8.284;2023-01-28T06:14:02;101217.81;;;5.37;70.28
30708;BME280;17458;48.958;8.284;2023-01-28T06:17:02;101214.13;;;5.34;70.81
30708;BME280;17458;48.958;8.284;2023-01-28T06:20:04;101225.38;;;5.32;70.23
30708;BME280;17458;48.958;8.284;2023-01-28T06:22:50;101230.47;;;5.41;70.21
30708;BME280;17458;48.958;8.284;2023-01-28T06:25:34;101236.34;;;5.68;69.25
30708;BME280;17458;48.958;8.284;2023-01-28T06:28:24;101234.28;;;5.44;69.97
30708;BME280;17458;48.958;8.284;2023-01-28T06:31:08;101240.25;;;5.31;70.38
30708;BME280;17458;48.958;8.284;2023-01-28T06:33:52;101236.72;;;5.73;69.32
30708;BME280;17458;48.958;8.284;2023-01-28T06:36:36;101235.53;;;5.69;68.86
30708;BME280;17458;48.958;8.284;2023-01-28T06:39:23;101236.66;;;5.41;69.58
30708;BME280;17458;48.958;8.284;2023-01-28T06:42:09;101249.53;;;5.58;69.78
30708;BME280;17458;48.958;8.284;2023-01-28T06:44:53;101250.16;;;5.66;68.71
30708;BME280;17458;48.958;8.284;2023-01-28T06:47:38;101259.69;;;5.54;69.22
30708;BME280;17458;48.958;8.284;2023-01-28T06:50:23;101246.97;;;5.18;70.54
30708;BME280;17458;48.958;8.284;2023-01-28T06:53:07;101250.09;;;5.34;70.51
30708;BME280;17458;48.958;8.284;2023-01-28T06:55:51;101256.94;;;5.42;70.19
30708;BME280;17458;48.958;8.284;2023-01-28T06:58:35;101254.78;;;5.68;68.98
30708;BME280;17458;48.958;8.284;2023-01-28T07:01:19;101255.66;;;5.79;68.79
30708;BME280;17458;48.958;8.284;2023-01-28T07:04:03;101261.84;;;5.90;68.37
30708;BME280;17458;48.958;8.284;2023-01-28T07:06:47;101263.13;;;5.53;69.35
30708;BME280;17458;48.958;8.284;2023-01-28T07:09:31;101263.63;;;5.49;69.60
30708;BME280;17458;48.958;8.284;2023-01-28T07:12:15;101271.31;;;5.25;70.16
30708;BME280;17458;48.958;8.284;2023-01-28T07:15:00;101268.16;;;5.09;70.62
30708;BME280;17458;48.958;8.284;2023-01-28T07:17:44;101278.44;;;5.47;69.91
30708;BME280;17458;48.958;8.284;2023-01-28T07:20:29;101278.13;;;5.33;70.06
30708;BME280;17458;48.958;8.284;2023-01-28T07:23:23;101280.78;;;5.33;70.63
30708;BME280;17458;48.958;8.284;2023-01-28T07:26:13;101277.78;;;5.19;70.22
30708;BME280;17458;48.958;8.284;2023-01-28T07:29:02;101278.66;;;5.60;68.93
30708;BME280;17458;48.958;8.284;2023-01-28T07:31:49;101277.56;;;5.68;69.06
30708;BME280;17458;48.958;8.284;2023-01-28T07:34:43;101283.69;;;5.37;69.83
30708;BME280;17458;48.958;8.284;2023-01-28T07:37:27;101287.66;;;5.31;70.21
30708;BME280;17458;48.958;8.284;2023-01-28T07:40:19;101288.13;;;5.68;69.54
30708;BME280;17458;48.958;8.284;2023-01-28T07:43:07;101293.56;;;5.59;69.44
30708;BME280;17458;48.958;8.284;2023-01-28T07:46:01;101293.28;;;5.56;69.19
30708;BME280;17458;48.958;8.284;2023-01-28T07:48:56;101295.00;;;5.46;69.28
30708;BME280;17458;48.958;8.284;2023-01-28T07:51:41;101300.66;;;5.50;69.61
30708;BME280;17458;48.958;8.284;2023-01-28T07:54:38;101305.94;;;5.40;69.36
30708;BME280;17458;48.958;8.284;2023-01-28T07:57:23;101302.59;;;5.63;68.98
30708;BME280;17458;48.958;8.284;2023-01-28T08:00:40;101302.75;;;4.83;71.09
30708;BME280;17458;48.958;8.284;2023-01-28T08:03:24;101300.91;;;5.63;69.09
30708;BME280;17458;48.958;8.284;2023-01-28T08:06:09;101309.38;;;5.39;69.75
30708;BME280;17458;48.958;8.284;2023-01-28T08:08:54;101303.44;;;5.11;70.67
30708;BME280;17458;48.958;8.284;2023-01-28T08:11:38;101309.50;;;5.30;70.38
30708;BME280;17458;48.958;8.284;2023-01-28T08:14:23;101320.16;;;5.12;70.96
30708;BME280;17458;48.958;8.284;2023-01-28T08:17:07;101317.66;;;5.23;71.59
30708;BME280;17458;48.958;8.284;2023-01-28T08:19:51;101320.56;;;5.16;72.01
30708;BME280;17458;48.958;8.284;2023-01-28T08:22:35;101320.94;;;5.01;72.03
30708;BME280;17458;48.958;8.284;2023-01-28T08:25:19;101324.91;;;5.16;71.96
30708;BME280;17458;48.958;8.284;2023-01-28T08:28:04;101326.06;;;5.09;72.58
30708;BME280;17458;48.958;8.284;2023-01-28T08:30:49;101325.69;;;5.35;72.37
30708;BME280;17458;48.958;8.284;2023-01-28T08:33:33;101326.59;;;5.35;72.00
30708;BME280;17458;48.958;8.284;2023-01-28T08:36:17;101330.03;;;5.14;72.41
30708;BME280;17458;48.958;8.284;2023-01-28T08:39:01;101333.34;;;5.32;72.25
30708;BME280;17458;48.958;8.284;2023-01-28T08:41:45;101335.47;;;5.46;71.84
30708;BME280;17458;48.958;8.284;2023-01-28T08:44:29;101337.03;;;5.44;71.98
30708;BME280;17458;48.958;8.284;2023-01-28T08:47:13;101332.69;;;5.45;70.98
30708;BME280;17458;48.958;8.284;2023-01-28T08:49:58;101333.44;;;5.33;72.06
30708;BME280;17458;48.958;8.284;2023-01-28T08:52:41;101337.69;;;5.42;71.48
30708;BME280;17458;48.958;8.284;2023-01-28T08:55:27;101327.25;;;5.63;70.99
30708;BME280;17458;48.958;8.284;2023-01-28T08:58:14;101333.84;;;5.68;70.32
30708;BME280;17458;48.958;8.284;2023-01-28T09:01:04;101325.69;;;5.35;71.11
30708;BME280;17458;48.958;8.284;2023-01-28T09:03:49;101332.28;;;5.50;71.25
30708;BME280;17458;48.958;8.284;2023-01-28T09:06:33;101340.44;;;5.53;71.69
30708;BME280;17458;48.958;8.284;2023-01-28T09:09:17;101333.47;;;5.23;70.45
30708;BME280;17458;48.958;8.284;2023-01-28T09:12:01;101331.63;;;5.53;70.55
30708;BME280;17458;48.958;8.284;2023-01-28T09:14:45;101335.81;;;5.51;70.99
30708;BME280;17458;48.958;8.284;2023-01-28T09:17:29;101343.97;;;5.84;69.53
30708;BME280;17458;48.958;8.284;2023-01-28T09:20:13;101350.41;;;6.08;68.81
30708;BME280;17458;48.958;8.284;2023-01-28T09:22:58;101348.28;;;6.14;68.68
30708;BME280;17458;48.958;8.284;2023-01-28T09:25:42;101347.91;;;5.79;69.00
30708;BME280;17458;48.958;8.284;2023-01-28T09:28:26;101344.25;;;5.37;69.58
30708;BME280;17458;48.958;8.284;2023-01-28T09:31:11;101357.16;;;5.33;70.27
30708;BME280;17458;48.958;8.284;2023-01-28T09:33:55;101360.59;;;5.73;69.25
30708;BME280;17458;48.958;8.284;2023-01-28T09:36:40;101357.97;;;5.73;68.05
30708;BME280;17458;48.958;8.284;2023-01-28T09:39:24;101360.72;;;5.95;68.71
30708;BME280;17458;48.958;8.284;2023-01-28T09:48:00;101376.69;;;6.38;66.88
30708;BME280;17458;48.958;8.284;2023-01-28T09:50:55;101371.88;;;6.13;68.08
30708;BME280;17458;48.958;8.284;2023-01-28T09:53:44;101363.34;;;6.37;66.88
30708;BME280;17458;48.958;8.284;2023-01-28T09:56:35;101375.94;;;6.19;67.06
30708;BME280;17458;48.958;8.284;2023-01-28T09:59:22;101384.53;;;6.17;66.83
30708;BME280;17458;48.958;8.284;2023-01-28T10:05:30;101377.75;;;5.88;68.40
30708;BME280;17458;48.958;8.284;2023-01-28T10:17:30;101371.13;;;5.83;68.31
30708;BME280;17458;48.958;8.284;2023-01-28T10:20:24;101372.31;;;5.66;68.45
30708;BME280;17458;48.958;8.284;2023-01-28T10:26:04;101370.84;;;6.11;66.53
30708;BME280;17458;48.958;8.284;2023-01-28T10:28:59;101375.16;;;6.20;66.82
30708;BME280;17458;48.958;8.284;2023-01-28T10:31:54;101363.16;;;6.24;66.59
30708;BME280;17458;48.958;8.284;2023-01-28T10:34:38;101367.81;;;5.96;66.79
30708;BME280;17458;48.958;8.284;2023-01-28T10:37:22;101366.75;;;6.14;67.27
30708;BME280;17458;48.958;8.284;2023-01-28T10:40:11;101363.56;;;6.08;67.92
30708;BME280;17458;48.958;8.284;2023-01-28T10:42:56;101369.34;;;6.24;66.71
30708;BME280;17458;48.958;8.284;2023-01-28T10:51:40;101364.28;;;5.34;68.08
30708;BME280;17458;48.958;8.284;2023-01-28T10:54:27;101370.72;;;5.68;68.31
30708;BME280;17458;48.958;8.284;2023-01-28T10:57:13;101378.13;;;5.73;68.97
30708;BME280;17458;48.958;8.284;2023-01-28T11:00:22;101381.81;;;5.44;69.43
30708;BME280;17458;48.958;8.284;2023-01-28T11:03:16;101378.13;;;5.73;68.71
30708;BME280;17458;48.958;8.284;2023-01-28T11:06:02;101381.81;;;5.75;69.63
30708;BME280;17458;48.958;8.284;2023-01-28T11:08:46;101381.69;;;5.43;69.22
30708;BME280;17458;48.958;8.284;2023-01-28T11:11:30;101381.41;;;5.29;70.54
30708;BME280;17458;48.958;8.284;2023-01-28T11:14:25;101381.81;;;5.54;69.99
30708;BME280;17458;48.958;8.284;2023-01-28T11:17:15;101378.38;;;5.35;69.00
30708;BME280;17458;48.958;8.284;2023-01-28T11:20:09;101375.59;;;5.84;68.32
30708;BME280;17458;48.958;8.284;2023-01-28T11:22:55;101376.53;;;5.64;68.45
30708;BME280;17458;48.958;8.284;2023-01-28T11:25:40;101370.03;;;6.12;67.40
30708;BME280;17458;48.958;8.284;2023-01-28T11:28:24;101377.72;;;5.98;67.80
30708;BME280;17458;48.958;8.284;2023-01-28T11:31:12;101377.31;;;5.94;68.39
30708;BME280;17458;48.958;8.284;2023-01-28T11:33:59;101379.69;;;6.01;67.61
30708;BME280;17458;48.958;8.284;2023-01-28T11:36:52;101382.31;;;5.91;68.25
30708;BME280;17458;48.958;8.284;2023-01-28T11:39:37;101378.38;;;5.96;67.08
30708;BME280;17458;48.958;8.284;2023-01-28T11:42:21;101374.81;;;5.85;67.21
30708;BME280;17458;48.958;8.284;2023-01-28T11:45:14;101380.72;;;6.13;67.44
30708;BME280;17458;48.958;8.284;2023-01-28T12:00:39;101383.19;;;6.22;65.78
30708;BME280;17458;48.958;8.284;2023-01-28T12:04:01;101383.06;;;6.20;66.65
30708;BME280;17458;48.958;8.284;2023-01-28T12:07:19;101385.09;;;6.02;66.63
30708;BME280;17458;48.958;8.284;2023-01-28T12:28:17;101363.22;;;6.35;64.42
30708;BME280;17458;48.958;8.284;2023-01-28T12:32:07;101362.28;;;6.45;63.51
30708;BME280;17458;48.958;8.284;2023-01-28T12:40:53;101352.16;;;6.61;63.35
30708;BME280;17458;48.958;8.284;2023-01-28T12:44:01;101356.31;;;6.48;63.51
30708;BME280;17458;48.958;8.284;2023-01-28T12:46:49;101350.41;;;6.72;63.10
30708;BME280;17458;48.958;8.284;2023-01-28T12:49:48;101359.09;;;6.49;63.19
30708;BME280;17458;48.958;8.284;2023-01-28T12:52:37;101353.69;;;6.48;62.91
30708;BME280;17458;48.958;8.284;2023-01-28T12:55:45;101356.66;;;6.62;63.28
30708;BME280;17458;48.958;8.284;2023-01-28T13:04:44;101347.84;;;6.84;61.99
30708;BME280;17458;48.958;8.284;2023-01-28T13:10:44;101340.81;;;6.62;61.90
30708;BME280;17458;48.958;8.284;2023-01-28T13:13:35;101348.50;;;6.59;61.25
30708;BME280;17458;48.958;8.284;2023-01-28T13:16:20;101343.91;;;6.47;61.60
30708;BME280;17458;48.958;8.284;2023-01-28T13:19:20;101352.94;;;6.60;60.63
30708;BME280;17458;48.958;8.284;2023-01-28T13:22:25;101348.84;;;6.32;60.60
30708;BME280;17458;48.958;8.284;2023-01-28T13:25:23;101349.25;;;6.68;59.90
30708;BME280;17458;48.958;8.284;2023-01-28T13:28:25;101355.59;;;7.26;59.32
30708;BME280;17458;48.958;8.284;2023-01-28T13:31:13;101352.19;;;6.83;59.03
30708;BME280;17458;48.958;8.284;2023-01-28T13:34:03;101351.88;;;6.90;59.03
30708;BME280;17458;48.958;8.284;2023-01-28T13:36:47;101357.41;;;6.71;59.22
30708;BME280;17458;48.958;8.284;2023-01-28T13:39:33;101357.81;;;6.44;59.97
30708;BME280;17458;48.958;8.284;2023-01-28T13:42:25;101351.09;;;6.37;59.95
30708;BME280;17458;48.958;8.284;2023-01-28T13:50:56;101380.50;;;6.32;59.21
30708;BME280;17458;48.958;8.284;2023-01-28T13:53:49;101375.47;;;6.45;59.01
30708;BME280;17458;48.958;8.284;2023-01-28T13:59:56;101381.34;;;6.21;59.86
30708;BME280;17458;48.958;8.284;2023-01-28T14:15:44;101395.50;;;6.75;58.18
30708;BME280;17458;48.958;8.284;2023-01-28T14:18:37;101405.56;;;6.37;59.32
30708;BME280;17458;48.958;8.284;2023-01-28T14:21:24;101400.09;;;6.88;57.89
30708;BME280;17458;48.958;8.284;2023-01-28T14:24:16;101404.22;;;6.74;57.97
30708;BME280;17458;48.958;8.284;2023-01-28T14:30:06;101414.09;;;6.87;57.59
30708;BME280;17458;48.958;8.284;2023-01-28T14:32:52;101416.47;;;6.52;58.14
30708;BME280;17458;48.958;8.284;2023-01-28T14:35:39;101418.38;;;6.32;58.47
30708;BME280;17458;48.958;8.284;2023-01-28T14:38:27;101430.88;;;6.77;57.95
30708;BME280;17458;48.958;8.284;2023-01-28T14:41:24;101431.81;;;6.78;56.92
30708;BME280;17458;48.958;8.284;2023-01-28T14:44:15;101432.88;;;6.37;58.42
30708;BME280;17458;48.958;8.284;2023-01-28T14:59:56;101438.22;;;5.97;59.16
30708;BME280;17458;48.958;8.284;2023-01-28T15:02:42;101446.38;;;5.90;59.49
30708;BME280;17458;48.958;8.284;2023-01-28T15:05:28;101449.00;;;5.69;59.51
30708;BME280;17458;48.958;8.284;2023-01-28T15:08:22;101449.03;;;6.00;58.83
30708;BME280;17458;48.958;8.284;2023-01-28T15:11:12;101448.97;;;6.40;58.29
30708;BME280;17458;48.958;8.284;2023-01-28T15:13:58;101451.66;;;6.10;58.48
30708;BME280;17458;48.958;8.284;2023-01-28T15:16:46;101459.97;;;6.04;58.50
30708;BME280;17458;48.958;8.284;2023-01-28T15:19:33;101456.28;;;6.02;58.20
30708;BME280;17458;48.958;8.284;2023-01-28T15:22:22;101450.88;;;6.11;57.79
30708;BME280;17458;48.958;8.284;2023-01-28T15:25:15;101454.28;;;5.69;58.31
30708;BME280;17458;48.958;8.284;2023-01-28T15:28:00;101465.22;;;5.84;58.89
30708;BME280;17458;48.958;8.284;2023-01-28T15:30:44;101475.59;;;5.52;59.19
30708;BME280;17458;48.958;8.284;2023-01-28T15:33:29;101467.78;;;6.03;58.36
30708;BME280;17458;48.958;8.284;2023-01-28T15:36:13;101480.91;;;5.83;58.41
30708;BME280;17458;48.958;8.284;2023-01-28T15:38:57;101472.22;;;5.94;58.23
30708;BME280;17458;48.958;8.284;2023-01-28T15:41:44;101477.34;;;5.82;57.67
30708;BME280;17458;48.958;8.284;2023-01-28T15:44:38;101485.56;;;5.26;59.08
30708;BME280;17458;48.958;8.284;2023-01-28T15:47:29;101485.72;;;5.38;59.11
30708;BME280;17458;48.958;8.284;2023-01-28T15:50:22;101491.56;;;5.05;59.53
30708;BME280;17458;48.958;8.284;2023-01-28T15:53:08;101485.69;;;5.27;58.73
30708;BME280;17458;48.958;8.284;2023-01-28T15:56:04;101489.00;;;5.35;58.78
30708;BME280;17458;48.958;8.284;2023-01-28T15:58:49;101489.59;;;5.61;57.92
30708;BME280;17458;48.958;8.284;2023-01-28T16:01:33;101485.03;;;5.89;57.24
30708;BME280;17458;48.958;8.284;2023-01-28T16:04:23;101480.03;;;6.02;57.26
30708;BME280;17458;48.958;8.284;2023-01-28T16:07:08;101486.19;;;5.83;57.35
30708;BME280;17458;48.958;8.284;2023-01-28T16:09:54;101487.34;;;5.46;58.51
30708;BME280;17458;48.958;8.284;2023-01-28T16:12:39;101487.63;;;5.69;57.54
30708;BME280;17458;48.958;8.284;2023-01-28T16:15:23;101494.66;;;5.99;56.75
30708;BME280;17458;48.958;8.284;2023-01-28T16:21:06;101483.91;;;5.67;58.18
30708;BME280;17458;48.958;8.284;2023-01-28T16:24:01;101482.91;;;6.05;56.34
30708;BME280;17458;48.958;8.284;2023-01-28T16:27:01;101485.25;;;5.82;56.10
30708;BME280;17458;48.958;8.284;2023-01-28T16:29:45;101493.44;;;5.75;56.50
30708;BME280;17458;48.958;8.284;2023-01-28T16:35:22;101488.41;;;5.58;56.96
30708;BME280;17458;48.958;8.284;2023-01-28T16:38:08;101492.97;;;5.50;56.91
30708;BME280;17458;48.958;8.284;2023-01-28T16:40:52;101487.47;;;5.78;56.67
30708;BME280;17458;48.958;8.284;2023-01-28T16:43:36;101495.22;;;5.46;57.06
30708;BME280;17458;48.958;8.284;2023-01-28T16:46:20;101486.53;;;5.47;56.71
30708;BME280;17458;48.958;8.284;2023-01-28T16:49:04;101495.88;;;5.53;56.27
30708;BME280;17458;48.958;8.284;2023-01-28T16:51:48;101484.94;;;5.39;56.80
30708;BME280;17458;48.958;8.284;2023-01-28T16:54:32;101486.25;;;5.44;56.34
30708;BME280;17458;48.958;8.284;2023-01-28T16:57:19;101485.41;;;5.24;57.23
30708;BME280;17458;48.958;8.284;2023-01-28T17:00:04;101488.06;;;5.34;56.62
30708;BME280;17458;48.958;8.284;2023-01-28T17:02:51;101493.91;;;5.51;56.73
30708;BME280;17458;48.958;8.284;2023-01-28T17:05:36;101495.25;;;5.56;56.19
30708;BME280;17458;48.958;8.284;2023-01-28T17:08:20;101496.38;;;5.29;57.13